Terminal Aerodrome Forecast
Issued by NWS

Current Version | Previous Version | Graphics & Text | Print | Product List | Glossary On
Versions: 1 2 3 4 5 6 7 8 9 10 11 12 13 14 15 16 17 18 19 20 21 22 23
000
FTUS41 KPBZ 121100
TAFMGW
TAF
KMGW 121132Z 1212/1312 34004KT P6SM OVC020
     FM121600 02005KT P6SM BKN025
     FM122000 02005KT P6SM SCT020 BKN200
     FM130000 05003KT P6SM SKC=

USA.gov is the U.S. government's official web portal to all federal, state and local government web resources and services.